sensor_id;sensor_type;location;lat;lon;timestamp;P1;durP1;ratioP1;P2;durP2;ratioP2
8887;SDS011;4480;52.370;9.748;2024-02-21T00:01:32;24.38;;;12.65;;
8887;SDS011;4480;52.370;9.748;2024-02-21T00:03:59;24.92;;;14.43;;
8887;SDS011;4480;52.370;9.748;2024-02-21T00:06:26;18.40;;;12.45;;
8887;SDS011;4480;52.370;9.748;2024-02-21T00:08:52;20.40;;;13.85;;
8887;SDS011;4480;52.370;9.748;2024-02-21T00:11:21;24.67;;;13.85;;
8887;SDS011;4480;52.370;9.748;2024-02-21T00:13:48;19.95;;;13.23;;
8887;SDS011;4480;52.370;9.748;2024-02-21T00:16:15;24.27;;;12.75;;
8887;SDS011;4480;52.370;9.748;2024-02-21T00:18:42;25.83;;;15.07;;
8887;SDS011;4480;52.370;9.748;2024-02-21T00:21:09;20.67;;;13.65;;
8887;SDS011;4480;52.370;9.748;2024-02-21T00:23:40;23.23;;;13.93;;
8887;SDS011;4480;52.370;9.748;2024-02-21T00:26:06;23.33;;;13.43;;
8887;SDS011;4480;52.370;9.748;2024-02-21T00:28:35;20.42;;;14.30;;
8887;SDS011;4480;52.370;9.748;2024-02-21T00:31:01;30.80;;;14.50;;
8887;SDS011;4480;52.370;9.748;2024-02-21T00:33:28;23.85;;;13.82;;
8887;SDS011;4480;52.370;9.748;2024-02-21T00:35:55;21.52;;;12.93;;
8887;SDS011;4480;52.370;9.748;2024-02-21T00:38:22;25.85;;;16.13;;
8887;SDS011;4480;52.370;9.748;2024-02-21T00:40:49;24.00;;;14.63;;
8887;SDS011;4480;52.370;9.748;2024-02-21T00:43:15;27.95;;;14.27;;
8887;SDS011;4480;52.370;9.748;2024-02-21T00:45:43;25.60;;;15.05;;
8887;SDS011;4480;52.370;9.748;2024-02-21T00:48:10;31.13;;;14.65;;
8887;SDS011;4480;52.370;9.748;2024-02-21T00:50:37;25.38;;;13.25;;
8887;SDS011;4480;52.370;9.748;2024-02-21T00:53:04;22.88;;;14.70;;
8887;SDS011;4480;52.370;9.748;2024-02-21T00:55:31;22.17;;;14.52;;
8887;SDS011;4480;52.370;9.748;2024-02-21T00:57:58;21.02;;;14.25;;
8887;SDS011;4480;52.370;9.748;2024-02-21T01:00:24;27.63;;;15.57;;
8887;SDS011;4480;52.370;9.748;2024-02-21T01:02:52;21.10;;;14.20;;
8887;SDS011;4480;52.370;9.748;2024-02-21T01:05:19;26.13;;;15.20;;
8887;SDS011;4480;52.370;9.748;2024-02-21T01:07:47;28.25;;;16.80;;
8887;SDS011;4480;52.370;9.748;2024-02-21T01:10:14;20.08;;;14.30;;
8887;SDS011;4480;52.370;9.748;2024-02-21T01:12:41;29.77;;;15.07;;
8887;SDS011;4480;52.370;9.748;2024-02-21T01:15:08;24.25;;;14.00;;
8887;SDS011;4480;52.370;9.748;2024-02-21T01:17:35;20.88;;;14.43;;
8887;SDS011;4480;52.370;9.748;2024-02-21T01:20:04;23.27;;;15.38;;
8887;SDS011;4480;52.370;9.748;2024-02-21T01:22:32;27.13;;;15.13;;
8887;SDS011;4480;52.370;9.748;2024-02-21T01:24:59;25.80;;;15.15;;
8887;SDS011;4480;52.370;9.748;2024-02-21T01:27:25;21.67;;;15.15;;
8887;SDS011;4480;52.370;9.748;2024-02-21T01:29:53;28.65;;;15.70;;
8887;SDS011;4480;52.370;9.748;2024-02-21T01:32:19;21.00;;;13.68;;
8887;SDS011;4480;52.370;9.748;2024-02-21T01:34:47;22.67;;;14.38;;
8887;SDS011;4480;52.370;9.748;2024-02-21T01:37:15;27.20;;;15.85;;
8887;SDS011;4480;52.370;9.748;2024-02-21T01:39:41;28.92;;;15.07;;
8887;SDS011;4480;52.370;9.748;2024-02-21T01:42:08;19.50;;;14.07;;
8887;SDS011;4480;52.370;9.748;2024-02-21T01:44:35;26.38;;;15.65;;
8887;SDS011;4480;52.370;9.748;2024-02-21T01:47:03;22.42;;;14.88;;
8887;SDS011;4480;52.370;9.748;2024-02-21T01:49:30;22.55;;;14.23;;
8887;SDS011;4480;52.370;9.748;2024-02-21T01:51:57;27.00;;;16.25;;
8887;SDS011;4480;52.370;9.748;2024-02-21T01:54:25;22.20;;;13.70;;
8887;SDS011;4480;52.370;9.748;2024-02-21T01:56:53;19.33;;;14.40;;
8887;SDS011;4480;52.370;9.748;2024-02-21T01:59:20;23.55;;;14.65;;
8887;SDS011;4480;52.370;9.748;2024-02-21T02:01:48;19.95;;;13.10;;
8887;SDS011;4480;52.370;9.748;2024-02-21T02:04:15;21.30;;;14.70;;
8887;SDS011;4480;52.370;9.748;2024-02-21T02:06:42;21.40;;;12.48;;
8887;SDS011;4480;52.370;9.748;2024-02-21T02:09:09;21.23;;;14.30;;
8887;SDS011;4480;52.370;9.748;2024-02-21T02:11:38;19.38;;;14.27;;
8887;SDS011;4480;52.370;9.748;2024-02-21T02:14:05;24.48;;;13.68;;
8887;SDS011;4480;52.370;9.748;2024-02-21T02:16:32;23.55;;;14.52;;
8887;SDS011;4480;52.370;9.748;2024-02-21T02:18:58;25.45;;;15.05;;
8887;SDS011;4480;52.370;9.748;2024-02-21T02:21:27;29.92;;;15.93;;
8887;SDS011;4480;52.370;9.748;2024-02-21T02:23:59;22.65;;;14.88;;
8887;SDS011;4480;52.370;9.748;2024-02-21T02:26:26;20.70;;;14.10;;
8887;SDS011;4480;52.370;9.748;2024-02-21T02:28:53;32.05;;;14.98;;
8887;SDS011;4480;52.370;9.748;2024-02-21T02:31:20;20.30;;;14.05;;
8887;SDS011;4480;52.370;9.748;2024-02-21T02:33:46;20.60;;;14.02;;
8887;SDS011;4480;52.370;9.748;2024-02-21T02:36:14;22.23;;;14.60;;
8887;SDS011;4480;52.370;9.748;2024-02-21T02:38:40;22.75;;;14.35;;
8887;SDS011;4480;52.370;9.748;2024-02-21T02:41:09;21.48;;;14.82;;
8887;SDS011;4480;52.370;9.748;2024-02-21T02:43:35;26.42;;;16.42;;
8887;SDS011;4480;52.370;9.748;2024-02-21T02:46:02;21.13;;;15.88;;
8887;SDS011;4480;52.370;9.748;2024-02-21T02:48:29;20.40;;;12.70;;
8887;SDS011;4480;52.370;9.748;2024-02-21T02:50:56;18.90;;;14.40;;
8887;SDS011;4480;52.370;9.748;2024-02-21T02:53:23;30.20;;;14.70;;
8887;SDS011;4480;52.370;9.748;2024-02-21T02:55:50;19.00;;;13.57;;
8887;SDS011;4480;52.370;9.748;2024-02-21T02:58:18;26.10;;;13.88;;
8887;SDS011;4480;52.370;9.748;2024-02-21T03:00:45;25.67;;;14.80;;
8887;SDS011;4480;52.370;9.748;2024-02-21T03:03:11;21.30;;;14.75;;
8887;SDS011;4480;52.370;9.748;2024-02-21T03:05:38;24.63;;;14.82;;
8887;SDS011;4480;52.370;9.748;2024-02-21T03:08:05;22.40;;;14.27;;
8887;SDS011;4480;52.370;9.748;2024-02-21T03:10:33;21.90;;;15.05;;
8887;SDS011;4480;52.370;9.748;2024-02-21T03:13:00;16.70;;;14.02;;
8887;SDS011;4480;52.370;9.748;2024-02-21T03:15:28;18.02;;;12.32;;
8887;SDS011;4480;52.370;9.748;2024-02-21T03:17:55;24.27;;;16.13;;
8887;SDS011;4480;52.370;9.748;2024-02-21T03:20:21;21.23;;;14.33;;
8887;SDS011;4480;52.370;9.748;2024-02-21T03:22:48;22.30;;;15.18;;
8887;SDS011;4480;52.370;9.748;2024-02-21T03:25:15;24.55;;;14.02;;
8887;SDS011;4480;52.370;9.748;2024-02-21T03:27:42;24.27;;;13.80;;
8887;SDS011;4480;52.370;9.748;2024-02-21T03:30:09;21.17;;;14.45;;
8887;SDS011;4480;52.370;9.748;2024-02-21T03:32:38;21.63;;;14.73;;
8887;SDS011;4480;52.370;9.748;2024-02-21T03:35:05;18.52;;;14.43;;
8887;SDS011;4480;52.370;9.748;2024-02-21T03:37:32;24.83;;;13.65;;
8887;SDS011;4480;52.370;9.748;2024-02-21T03:39:59;16.52;;;13.23;;
8887;SDS011;4480;52.370;9.748;2024-02-21T03:42:27;19.23;;;12.70;;
8887;SDS011;4480;52.370;9.748;2024-02-21T03:44:55;19.50;;;13.48;;
8887;SDS011;4480;52.370;9.748;2024-02-21T03:47:22;21.38;;;13.27;;
8887;SDS011;4480;52.370;9.748;2024-02-21T03:49:50;18.52;;;14.05;;
8887;SDS011;4480;52.370;9.748;2024-02-21T03:52:17;21.27;;;12.90;;
8887;SDS011;4480;52.370;9.748;2024-02-21T03:54:44;21.05;;;12.32;;
8887;SDS011;4480;52.370;9.748;2024-02-21T03:57:10;19.17;;;12.90;;
8887;SDS011;4480;52.370;9.748;2024-02-21T03:59:37;24.55;;;14.50;;
8887;SDS011;4480;52.370;9.748;2024-02-21T04:02:05;18.90;;;12.00;;
8887;SDS011;4480;52.370;9.748;2024-02-21T04:04:33;21.75;;;13.18;;
8887;SDS011;4480;52.370;9.748;2024-02-21T04:07:01;19.70;;;14.15;;
8887;SDS011;4480;52.370;9.748;2024-02-21T04:09:31;17.13;;;13.30;;
8887;SDS011;4480;52.370;9.748;2024-02-21T04:13:13;21.83;;;13.65;;
8887;SDS011;4480;52.370;9.748;2024-02-21T04:15:40;22.33;;;13.80;;
8887;SDS011;4480;52.370;9.748;2024-02-21T04:18:07;18.73;;;13.88;;
8887;SDS011;4480;52.370;9.748;2024-02-21T04:20:33;20.70;;;13.52;;
8887;SDS011;4480;52.370;9.748;2024-02-21T04:23:00;19.17;;;14.15;;
8887;SDS011;4480;52.370;9.748;2024-02-21T04:25:27;22.85;;;13.77;;
8887;SDS011;4480;52.370;9.748;2024-02-21T04:27:54;24.50;;;14.82;;
8887;SDS011;4480;52.370;9.748;2024-02-21T04:30:22;19.80;;;14.25;;
8887;SDS011;4480;52.370;9.748;2024-02-21T04:32:49;24.17;;;13.70;;
8887;SDS011;4480;52.370;9.748;2024-02-21T04:35:16;23.10;;;14.45;;
8887;SDS011;4480;52.370;9.748;2024-02-21T04:37:43;22.50;;;14.40;;
8887;SDS011;4480;52.370;9.748;2024-02-21T04:40:10;19.48;;;14.98;;
8887;SDS011;4480;52.370;9.748;2024-02-21T04:42:37;24.40;;;13.68;;
8887;SDS011;4480;52.370;9.748;2024-02-21T04:45:04;17.95;;;12.60;;
8887;SDS011;4480;52.370;9.748;2024-02-21T04:47:33;24.95;;;15.18;;
8887;SDS011;4480;52.370;9.748;2024-02-21T04:50:00;20.45;;;14.38;;
8887;SDS011;4480;52.370;9.748;2024-02-21T04:52:27;25.63;;;14.73;;
8887;SDS011;4480;52.370;9.748;2024-02-21T04:54:53;19.73;;;15.05;;
8887;SDS011;4480;52.370;9.748;2024-02-21T04:57:21;21.55;;;15.10;;
8887;SDS011;4480;52.370;9.748;2024-02-21T04:59:48;20.13;;;14.43;;
8887;SDS011;4480;52.370;9.748;2024-02-21T05:02:14;24.00;;;15.57;;
8887;SDS011;4480;52.370;9.748;2024-02-21T05:04:43;19.60;;;14.17;;
8887;SDS011;4480;52.370;9.748;2024-02-21T05:07:10;19.05;;;13.40;;
8887;SDS011;4480;52.370;9.748;2024-02-21T05:09:37;21.95;;;15.00;;
8887;SDS011;4480;52.370;9.748;2024-02-21T05:12:04;24.38;;;15.75;;
8887;SDS011;4480;52.370;9.748;2024-02-21T05:14:31;21.30;;;14.98;;
8887;SDS011;4480;52.370;9.748;2024-02-21T05:16:57;23.37;;;15.37;;
8887;SDS011;4480;52.370;9.748;2024-02-21T05:19:24;25.60;;;15.25;;
8887;SDS011;4480;52.370;9.748;2024-02-21T05:21:52;24.08;;;16.00;;
8887;SDS011;4480;52.370;9.748;2024-02-21T05:24:19;28.10;;;16.02;;
8887;SDS011;4480;52.370;9.748;2024-02-21T05:26:46;21.02;;;14.00;;
8887;SDS011;4480;52.370;9.748;2024-02-21T05:29:13;22.83;;;15.10;;
8887;SDS011;4480;52.370;9.748;2024-02-21T05:31:43;21.97;;;15.67;;
8887;SDS011;4480;52.370;9.748;2024-02-21T05:34:21;26.88;;;16.20;;
8887;SDS011;4480;52.370;9.748;2024-02-21T05:36:48;25.98;;;14.65;;
8887;SDS011;4480;52.370;9.748;2024-02-21T05:39:17;22.43;;;15.30;;
8887;SDS011;4480;52.370;9.748;2024-02-21T05:41:44;23.30;;;13.30;;
8887;SDS011;4480;52.370;9.748;2024-02-21T05:44:11;23.27;;;14.20;;
8887;SDS011;4480;52.370;9.748;2024-02-21T05:46:38;20.77;;;14.48;;
8887;SDS011;4480;52.370;9.748;2024-02-21T05:49:04;20.35;;;14.55;;
8887;SDS011;4480;52.370;9.748;2024-02-21T05:51:32;16.33;;;13.15;;
8887;SDS011;4480;52.370;9.748;2024-02-21T05:53:59;19.30;;;14.00;;
8887;SDS011;4480;52.370;9.748;2024-02-21T05:56:27;24.08;;;14.23;;
8887;SDS011;4480;52.370;9.748;2024-02-21T05:58:54;20.48;;;13.32;;
8887;SDS011;4480;52.370;9.748;2024-02-21T06:01:21;21.65;;;13.50;;
8887;SDS011;4480;52.370;9.748;2024-02-21T06:03:48;25.75;;;13.63;;
8887;SDS011;4480;52.370;9.748;2024-02-21T06:06:15;22.88;;;15.15;;
8887;SDS011;4480;52.370;9.748;2024-02-21T06:08:42;18.38;;;14.05;;
8887;SDS011;4480;52.370;9.748;2024-02-21T06:11:08;21.83;;;15.43;;
8887;SDS011;4480;52.370;9.748;2024-02-21T06:13:39;20.75;;;14.48;;
8887;SDS011;4480;52.370;9.748;2024-02-21T06:16:06;22.80;;;14.73;;
8887;SDS011;4480;52.370;9.748;2024-02-21T06:18:35;22.65;;;14.15;;
8887;SDS011;4480;52.370;9.748;2024-02-21T06:21:03;22.63;;;14.00;;
8887;SDS011;4480;52.370;9.748;2024-02-21T06:23:29;22.73;;;15.85;;
8887;SDS011;4480;52.370;9.748;2024-02-21T06:25:56;21.10;;;13.65;;
8887;SDS011;4480;52.370;9.748;2024-02-21T06:28:23;28.90;;;12.95;;
8887;SDS011;4480;52.370;9.748;2024-02-21T06:30:51;24.25;;;14.05;;
8887;SDS011;4480;52.370;9.748;2024-02-21T06:33:18;20.40;;;14.02;;
8887;SDS011;4480;52.370;9.748;2024-02-21T06:35:47;17.40;;;14.82;;
8887;SDS011;4480;52.370;9.748;2024-02-21T06:38:17;27.50;;;16.45;;
8887;SDS011;4480;52.370;9.748;2024-02-21T06:40:44;22.20;;;14.75;;
8887;SDS011;4480;52.370;9.748;2024-02-21T06:43:14;18.60;;;14.82;;
8887;SDS011;4480;52.370;9.748;2024-02-21T06:45:43;20.40;;;14.55;;
8887;SDS011;4480;52.370;9.748;2024-02-21T06:48:13;21.83;;;14.30;;
8887;SDS011;4480;52.370;9.748;2024-02-21T06:50:40;23.25;;;14.98;;
8887;SDS011;4480;52.370;9.748;2024-02-21T06:53:07;17.33;;;13.73;;
8887;SDS011;4480;52.370;9.748;2024-02-21T06:55:34;21.98;;;14.50;;
8887;SDS011;4480;52.370;9.748;2024-02-21T06:58:01;21.17;;;13.38;;
8887;SDS011;4480;52.370;9.748;2024-02-21T07:00:28;18.45;;;13.57;;
8887;SDS011;4480;52.370;9.748;2024-02-21T07:02:54;20.95;;;13.05;;
8887;SDS011;4480;52.370;9.748;2024-02-21T07:05:22;21.25;;;14.20;;
8887;SDS011;4480;52.370;9.748;2024-02-21T07:07:49;19.65;;;14.32;;
8887;SDS011;4480;52.370;9.748;2024-02-21T07:10:16;27.65;;;15.15;;
8887;SDS011;4480;52.370;9.748;2024-02-21T07:12:43;25.77;;;15.18;;
8887;SDS011;4480;52.370;9.748;2024-02-21T07:15:09;18.20;;;13.27;;
8887;SDS011;4480;52.370;9.748;2024-02-21T07:17:36;22.77;;;14.30;;
8887;SDS011;4480;52.370;9.748;2024-02-21T07:20:03;24.55;;;14.70;;
8887;SDS011;4480;52.370;9.748;2024-02-21T07:22:32;17.50;;;12.65;;
8887;SDS011;4480;52.370;9.748;2024-02-21T07:24:59;20.00;;;13.50;;
8887;SDS011;4480;52.370;9.748;2024-02-21T07:27:26;23.30;;;13.30;;
8887;SDS011;4480;52.370;9.748;2024-02-21T07:29:55;18.65;;;13.95;;
8887;SDS011;4480;52.370;9.748;2024-02-21T07:32:22;18.05;;;12.85;;
8887;SDS011;4480;52.370;9.748;2024-02-21T07:34:49;24.42;;;14.15;;
8887;SDS011;4480;52.370;9.748;2024-02-21T07:37:16;19.00;;;13.63;;
8887;SDS011;4480;52.370;9.748;2024-02-21T07:39:44;19.63;;;13.07;;
8887;SDS011;4480;52.370;9.748;2024-02-21T07:42:11;22.30;;;12.35;;
8887;SDS011;4480;52.370;9.748;2024-02-21T07:44:37;18.10;;;12.07;;
8887;SDS011;4480;52.370;9.748;2024-02-21T07:47:04;19.38;;;14.20;;
8887;SDS011;4480;52.370;9.748;2024-02-21T07:49:32;17.43;;;11.37;;
8887;SDS011;4480;52.370;9.748;2024-02-21T07:52:00;21.30;;;13.10;;
8887;SDS011;4480;52.370;9.748;2024-02-21T07:54:27;15.65;;;11.60;;
8887;SDS011;4480;52.370;9.748;2024-02-21T07:56:55;16.50;;;11.45;;
8887;SDS011;4480;52.370;9.748;2024-02-21T07:59:22;17.95;;;11.57;;
8887;SDS011;4480;52.370;9.748;2024-02-21T08:01:48;14.68;;;12.38;;
8887;SDS011;4480;52.370;9.748;2024-02-21T08:04:15;16.85;;;11.45;;
8887;SDS011;4480;52.370;9.748;2024-02-21T08:06:42;18.65;;;11.95;;
8887;SDS011;4480;52.370;9.748;2024-02-21T08:09:10;17.67;;;12.37;;
8887;SDS011;4480;52.370;9.748;2024-02-21T08:11:36;14.30;;;11.13;;
8887;SDS011;4480;52.370;9.748;2024-02-21T08:14:05;15.77;;;11.77;;
8887;SDS011;4480;52.370;9.748;2024-02-21T08:16:33;16.53;;;12.40;;
8887;SDS011;4480;52.370;9.748;2024-02-21T08:18:59;21.57;;;11.70;;
8887;SDS011;4480;52.370;9.748;2024-02-21T08:21:28;15.67;;;10.60;;
8887;SDS011;4480;52.370;9.748;2024-02-21T08:23:54;15.40;;;11.40;;
8887;SDS011;4480;52.370;9.748;2024-02-21T08:26:21;16.00;;;10.83;;
8887;SDS011;4480;52.370;9.748;2024-02-21T08:28:48;18.80;;;11.17;;
8887;SDS011;4480;52.370;9.748;2024-02-21T08:31:19;17.53;;;10.50;;
8887;SDS011;4480;52.370;9.748;2024-02-21T08:33:48;12.83;;;10.33;;
8887;SDS011;4480;52.370;9.748;2024-02-21T08:36:17;16.97;;;10.17;;
8887;SDS011;4480;52.370;9.748;2024-02-21T08:38:44;19.60;;;12.33;;
8887;SDS011;4480;52.370;9.748;2024-02-21T08:41:11;14.90;;;10.30;;
8887;SDS011;4480;52.370;9.748;2024-02-21T08:43:38;18.87;;;9.33;;
8887;SDS011;4480;52.370;9.748;2024-02-21T08:46:05;16.50;;;10.13;;
8887;SDS011;4480;52.370;9.748;2024-02-21T08:48:33;14.03;;;10.10;;
8887;SDS011;4480;52.370;9.748;2024-02-21T08:51:00;15.13;;;10.13;;
8887;SDS011;4480;52.370;9.748;2024-02-21T08:53:26;13.57;;;10.10;;
8887;SDS011;4480;52.370;9.748;2024-02-21T08:55:53;15.20;;;9.60;;
8887;SDS011;4480;52.370;9.748;2024-02-21T08:58:20;12.53;;;9.20;;
8887;SDS011;4480;52.370;9.748;2024-02-21T09:00:48;13.93;;;8.77;;
8887;SDS011;4480;52.370;9.748;2024-02-21T09:03:16;10.80;;;8.27;;
8887;SDS011;4480;52.370;9.748;2024-02-21T09:05:46;13.07;;;8.57;;
8887;SDS011;4480;52.370;9.748;2024-02-21T09:08:13;11.40;;;7.70;;
8887;SDS011;4480;52.370;9.748;2024-02-21T09:10:39;11.97;;;7.67;;
8887;SDS011;4480;52.370;9.748;2024-02-21T09:13:06;16.33;;;7.53;;
8887;SDS011;4480;52.370;9.748;2024-02-21T09:15:33;9.07;;;7.77;;
8887;SDS011;4480;52.370;9.748;2024-02-21T09:18:00;13.37;;;7.47;;
8887;SDS011;4480;52.370;9.748;2024-02-21T09:20:27;10.60;;;6.53;;
8887;SDS011;4480;52.370;9.748;2024-02-21T09:22:56;10.90;;;7.20;;
8887;SDS011;4480;52.370;9.748;2024-02-21T09:25:23;10.63;;;7.03;;
8887;SDS011;4480;52.370;9.748;2024-02-21T09:27:49;11.53;;;6.70;;
8887;SDS011;4480;52.370;9.748;2024-02-21T09:30:17;9.90;;;6.40;;
8887;SDS011;4480;52.370;9.748;2024-02-21T09:32:44;10.20;;;6.43;;
8887;SDS011;4480;52.370;9.748;2024-02-21T09:35:11;9.73;;;6.43;;
8887;SDS011;4480;52.370;9.748;2024-02-21T09:37:38;9.50;;;6.77;;
8887;SDS011;4480;52.370;9.748;2024-02-21T09:40:07;13.70;;;6.10;;
8887;SDS011;4480;52.370;9.748;2024-02-21T09:42:36;11.30;;;6.23;;
8887;SDS011;4480;52.370;9.748;2024-02-21T09:45:04;9.10;;;5.17;;
8887;SDS011;4480;52.370;9.748;2024-02-21T09:47:48;6.10;;;5.50;;
8887;SDS011;4480;52.370;9.748;2024-02-21T09:50:25;9.13;;;5.60;;
8887;SDS011;4480;52.370;9.748;2024-02-21T09:52:53;8.27;;;5.20;;
8887;SDS011;4480;52.370;9.748;2024-02-21T09:55:23;11.07;;;5.57;;
8887;SDS011;4480;52.370;9.748;2024-02-21T09:57:52;9.10;;;5.60;;
8887;SDS011;4480;52.370;9.748;2024-02-21T10:00:20;11.20;;;6.97;;
8887;SDS011;4480;52.370;9.748;2024-02-21T10:02:47;7.30;;;5.03;;
8887;SDS011;4480;52.370;9.748;2024-02-21T10:05:15;7.10;;;5.10;;
8887;SDS011;4480;52.370;9.748;2024-02-21T10:07:42;6.13;;;5.20;;
8887;SDS011;4480;52.370;9.748;2024-02-21T10:10:09;8.60;;;5.20;;
8887;SDS011;4480;52.370;9.748;2024-02-21T10:12:38;8.70;;;5.50;;
8887;SDS011;4480;52.370;9.748;2024-02-21T10:15:19;7.30;;;4.77;;
8887;SDS011;4480;52.370;9.748;2024-02-21T10:17:46;11.93;;;5.03;;
8887;SDS011;4480;52.370;9.748;2024-02-21T10:20:13;11.00;;;5.77;;
8887;SDS011;4480;52.370;9.748;2024-02-21T10:22:41;8.07;;;5.10;;
8887;SDS011;4480;52.370;9.748;2024-02-21T10:25:08;8.20;;;4.97;;
8887;SDS011;4480;52.370;9.748;2024-02-21T10:27:35;11.57;;;5.83;;
8887;SDS011;4480;52.370;9.748;2024-02-21T10:30:04;6.27;;;4.70;;
8887;SDS011;4480;52.370;9.748;2024-02-21T10:32:33;4.93;;;4.40;;
8887;SDS011;4480;52.370;9.748;2024-02-21T10:35:03;5.60;;;3.70;;
8887;SDS011;4480;52.370;9.748;2024-02-21T10:37:30;5.80;;;3.77;;
8887;SDS011;4480;52.370;9.748;2024-02-21T10:39:57;10.13;;;4.67;;
8887;SDS011;4480;52.370;9.748;2024-02-21T10:42:26;6.80;;;3.67;;
8887;SDS011;4480;52.370;9.748;2024-02-21T10:45:00;5.03;;;3.80;;
8887;SDS011;4480;52.370;9.748;2024-02-21T10:47:29;6.20;;;3.80;;
8887;SDS011;4480;52.370;9.748;2024-02-21T10:50:00;7.77;;;4.20;;
8887;SDS011;4480;52.370;9.748;2024-02-21T10:52:32;9.30;;;4.10;;
8887;SDS011;4480;52.370;9.748;2024-02-21T10:55:09;6.50;;;3.40;;
8887;SDS011;4480;52.370;9.748;2024-02-21T10:57:42;5.73;;;3.40;;
8887;SDS011;4480;52.370;9.748;2024-02-21T11:00:11;5.77;;;3.87;;
8887;SDS011;4480;52.370;9.748;2024-02-21T11:02:41;4.70;;;3.00;;
8887;SDS011;4480;52.370;9.748;2024-02-21T11:05:08;7.00;;;3.63;;
8887;SDS011;4480;52.370;9.748;2024-02-21T11:07:35;5.40;;;3.00;;
8887;SDS011;4480;52.370;9.748;2024-02-21T11:10:04;9.33;;;4.10;;
8887;SDS011;4480;52.370;9.748;2024-02-21T11:12:32;7.23;;;3.50;;
8887;SDS011;4480;52.370;9.748;2024-02-21T11:15:05;7.10;;;3.17;;
8887;SDS011;4480;52.370;9.748;2024-02-21T11:17:34;5.10;;;3.30;;
8887;SDS011;4480;52.370;9.748;2024-02-21T11:20:10;4.43;;;3.23;;
8887;SDS011;4480;52.370;9.748;2024-02-21T11:22:41;8.00;;;3.40;;
8887;SDS011;4480;52.370;9.748;2024-02-21T11:25:08;6.97;;;3.40;;
8887;SDS011;4480;52.370;9.748;2024-02-21T11:27:36;4.63;;;2.90;;
8887;SDS011;4480;52.370;9.748;2024-02-21T11:30:04;4.33;;;2.60;;
8887;SDS011;4480;52.370;9.748;2024-02-21T11:32:32;4.90;;;3.40;;
8887;SDS011;4480;52.370;9.748;2024-02-21T11:35:00;7.93;;;3.77;;
8887;SDS011;4480;52.370;9.748;2024-02-21T11:37:29;6.10;;;3.87;;
8887;SDS011;4480;52.370;9.748;2024-02-21T11:39:58;3.97;;;2.90;;
8887;SDS011;4480;52.370;9.748;2024-02-21T11:42:25;4.83;;;3.13;;
8887;SDS011;4480;52.370;9.748;2024-02-21T11:44:52;7.13;;;3.30;;
8887;SDS011;4480;52.370;9.748;2024-02-21T11:47:21;5.87;;;2.70;;
8887;SDS011;4480;52.370;9.748;2024-02-21T11:49:50;3.97;;;2.73;;
8887;SDS011;4480;52.370;9.748;2024-02-21T11:52:19;7.80;;;3.20;;
8887;SDS011;4480;52.370;9.748;2024-02-21T11:54:50;4.57;;;3.10;;
8887;SDS011;4480;52.370;9.748;2024-02-21T11:57:17;6.87;;;2.70;;
8887;SDS011;4480;52.370;9.748;2024-02-21T11:59:44;5.03;;;3.17;;
8887;SDS011;4480;52.370;9.748;2024-02-21T12:02:11;6.47;;;2.70;;
8887;SDS011;4480;52.370;9.748;2024-02-21T12:04:38;3.77;;;2.40;;
8887;SDS011;4480;52.370;9.748;2024-02-21T12:07:06;7.03;;;3.00;;
8887;SDS011;4480;52.370;9.748;2024-02-21T12:09:33;6.20;;;3.97;;
8887;SDS011;4480;52.370;9.748;2024-02-21T12:12:01;5.53;;;3.13;;
8887;SDS011;4480;52.370;9.748;2024-02-21T12:14:30;9.47;;;2.57;;
8887;SDS011;4480;52.370;9.748;2024-02-21T12:16:58;5.60;;;3.27;;
8887;SDS011;4480;52.370;9.748;2024-02-21T12:19:25;5.30;;;2.90;;
8887;SDS011;4480;52.370;9.748;2024-02-21T12:21:54;6.70;;;3.93;;
8887;SDS011;4480;52.370;9.748;2024-02-21T12:24:24;5.37;;;3.10;;
8887;SDS011;4480;52.370;9.748;2024-02-21T12:26:52;3.80;;;2.73;;
8887;SDS011;4480;52.370;9.748;2024-02-21T12:29:20;5.43;;;3.57;;
8887;SDS011;4480;52.370;9.748;2024-02-21T12:31:47;7.50;;;3.13;;
8887;SDS011;4480;52.370;9.748;2024-02-21T12:34:14;10.00;;;3.60;;
8887;SDS011;4480;52.370;9.748;2024-02-21T12:36:41;7.27;;;3.23;;
8887;SDS011;4480;52.370;9.748;2024-02-21T12:39:09;9.50;;;3.90;;
8887;SDS011;4480;52.370;9.748;2024-02-21T12:41:37;6.40;;;3.20;;
8887;SDS011;4480;52.370;9.748;2024-02-21T12:44:05;4.23;;;3.20;;
8887;SDS011;4480;52.370;9.748;2024-02-21T12:46:33;5.40;;;3.83;;
8887;SDS011;4480;52.370;9.748;2024-02-21T12:48:59;5.80;;;3.53;;
8887;SDS011;4480;52.370;9.748;2024-02-21T12:51:26;8.33;;;3.93;;
8887;SDS011;4480;52.370;9.748;2024-02-21T12:53:53;6.87;;;5.00;;
8887;SDS011;4480;52.370;9.748;2024-02-21T12:56:20;7.87;;;5.03;;
8887;SDS011;4480;52.370;9.748;2024-02-21T12:58:48;12.67;;;4.40;;
8887;SDS011;4480;52.370;9.748;2024-02-21T13:01:15;8.73;;;5.57;;
8887;SDS011;4480;52.370;9.748;2024-02-21T13:03:42;6.00;;;4.07;;
8887;SDS011;4480;52.370;9.748;2024-02-21T13:06:09;11.47;;;5.67;;
8887;SDS011;4480;52.370;9.748;2024-02-21T13:08:36;5.97;;;4.53;;
8887;SDS011;4480;52.370;9.748;2024-02-21T13:11:03;6.50;;;5.20;;
8887;SDS011;4480;52.370;9.748;2024-02-21T13:13:30;8.33;;;5.13;;
8887;SDS011;4480;52.370;9.748;2024-02-21T13:15:58;9.73;;;5.40;;
8887;SDS011;4480;52.370;9.748;2024-02-21T13:18:25;7.47;;;5.87;;
8887;SDS011;4480;52.370;9.748;2024-02-21T13:20:52;7.17;;;5.17;;
8887;SDS011;4480;52.370;9.748;2024-02-21T13:23:19;8.10;;;5.60;;
8887;SDS011;4480;52.370;9.748;2024-02-21T13:25:47;6.57;;;4.67;;
8887;SDS011;4480;52.370;9.748;2024-02-21T13:28:14;6.20;;;5.03;;
8887;SDS011;4480;52.370;9.748;2024-02-21T13:30:41;5.80;;;4.50;;
8887;SDS011;4480;52.370;9.748;2024-02-21T13:33:09;8.20;;;5.10;;
8887;SDS011;4480;52.370;9.748;2024-02-21T13:35:37;6.53;;;4.73;;
8887;SDS011;4480;52.370;9.748;2024-02-21T13:38:03;7.33;;;5.10;;
8887;SDS011;4480;52.370;9.748;2024-02-21T13:40:30;8.30;;;5.50;;
8887;SDS011;4480;52.370;9.748;2024-02-21T13:42:57;10.27;;;4.97;;
8887;SDS011;4480;52.370;9.748;2024-02-21T13:45:24;5.20;;;4.10;;
8887;SDS011;4480;52.370;9.748;2024-02-21T13:47:51;6.37;;;5.27;;
8887;SDS011;4480;52.370;9.748;2024-02-21T13:50:19;8.30;;;4.47;;
8887;SDS011;4480;52.370;9.748;2024-02-21T13:52:48;7.70;;;4.40;;
8887;SDS011;4480;52.370;9.748;2024-02-21T13:55:14;7.03;;;4.07;;
8887;SDS011;4480;52.370;9.748;2024-02-21T13:57:41;5.83;;;3.93;;
8887;SDS011;4480;52.370;9.748;2024-02-21T14:00:08;4.97;;;3.30;;
8887;SDS011;4480;52.370;9.748;2024-02-21T14:02:36;7.87;;;4.67;;
8887;SDS011;4480;52.370;9.748;2024-02-21T14:05:04;7.90;;;3.53;;
8887;SDS011;4480;52.370;9.748;2024-02-21T14:07:33;6.23;;;3.37;;
8887;SDS011;4480;52.370;9.748;2024-02-21T14:09:59;5.43;;;3.80;;
8887;SDS011;4480;52.370;9.748;2024-02-21T14:12:26;6.27;;;3.23;;
8887;SDS011;4480;52.370;9.748;2024-02-21T14:14:53;5.10;;;3.30;;
8887;SDS011;4480;52.370;9.748;2024-02-21T14:17:22;5.77;;;3.33;;
8887;SDS011;4480;52.370;9.748;2024-02-21T14:19:49;9.07;;;3.43;;
8887;SDS011;4480;52.370;9.748;2024-02-21T14:22:16;4.20;;;2.70;;
8887;SDS011;4480;52.370;9.748;2024-02-21T14:24:45;7.23;;;3.10;;
8887;SDS011;4480;52.370;9.748;2024-02-21T14:27:12;4.57;;;2.80;;
8887;SDS011;4480;52.370;9.748;2024-02-21T14:29:39;4.50;;;2.77;;
8887;SDS011;4480;52.370;9.748;2024-02-21T14:32:05;3.30;;;2.27;;
8887;SDS011;4480;52.370;9.748;2024-02-21T14:34:35;4.27;;;2.43;;
8887;SDS011;4480;52.370;9.748;2024-02-21T14:37:01;3.30;;;2.30;;
8887;SDS011;4480;52.370;9.748;2024-02-21T14:39:29;4.60;;;2.47;;
8887;SDS011;4480;52.370;9.748;2024-02-21T14:41:58;4.93;;;2.57;;
8887;SDS011;4480;52.370;9.748;2024-02-21T14:44:25;5.63;;;2.60;;
8887;SDS011;4480;52.370;9.748;2024-02-21T14:46:52;4.40;;;2.20;;
8887;SDS011;4480;52.370;9.748;2024-02-21T14:49:19;4.87;;;3.13;;
8887;SDS011;4480;52.370;9.748;2024-02-21T14:51:45;4.20;;;2.43;;
8887;SDS011;4480;52.370;9.748;2024-02-21T14:54:12;7.30;;;3.03;;
8887;SDS011;4480;52.370;9.748;2024-02-21T14:56:39;7.30;;;3.23;;
8887;SDS011;4480;52.370;9.748;2024-02-21T14:59:07;5.60;;;3.10;;
8887;SDS011;4480;52.370;9.748;2024-02-21T15:01:35;5.17;;;2.73;;